createdAt,value
2016-09-12T00:00:58.633Z,0
2016-09-12T00:01:58.941Z,0
2016-09-12T00:02:58.635Z,0
2016-09-12T00:03:58.641Z,0
2016-09-12T00:04:58.661Z,0
2016-09-12T00:05:58.689Z,0
2016-09-12T00:06:58.954Z,0
2016-09-12T00:07:58.939Z,0
2016-09-12T00:08:58.643Z,0
2016-09-12T00:09:58.952Z,0
2016-09-12T00:10:58.615Z,0
2016-09-12T00:11:58.622Z,0
2016-09-12T00:12:58.625Z,0
2016-09-12T00:13:58.626Z,0
2016-09-12T00:14:58.615Z,0
2016-09-12T00:15:58.921Z,0
2016-09-12T00:16:58.624Z,0
2016-09-12T00:17:58.624Z,0
2016-09-12T00:18:58.619Z,0
2016-09-12T00:19:58.610Z,0
2016-09-12T00:20:58.627Z,0
2016-09-12T00:21:58.633Z,0
2016-09-12T00:22:58.945Z,0
2016-09-12T00:23:58.594Z,0
2016-09-12T00:24:58.605Z,0
2016-09-12T00:25:58.638Z,0
2016-09-12T00:26:58.626Z,0
2016-09-12T00:27:58.901Z,0
2016-09-12T00:28:58.599Z,0
2016-09-12T00:29:58.887Z,0
2016-09-12T00:30:58.629Z,0
2016-09-12T00:31:58.978Z,0
2016-09-12T00:32:58.610Z,0
2016-09-12T00:33:58.591Z,0
2016-09-12T00:34:59.183Z,0
2016-09-12T00:35:58.584Z,0
2016-09-12T00:36:58.584Z,0
2016-09-12T00:37:58.885Z,0
2016-09-12T00:38:58.592Z,0
2016-09-12T00:39:58.578Z,0
2016-09-12T00:40:58.572Z,0
2016-09-12T00:41:58.868Z,0
2016-09-12T00:42:58.570Z,0
2016-09-12T00:43:58.868Z,0
2016-09-12T00:44:58.574Z,0
2016-09-12T00:45:58.584Z,0
2016-09-12T00:46:58.566Z,0
2016-09-12T00:47:58.866Z,0
2016-09-12T00:48:58.589Z,0
2016-09-12T00:49:58.866Z,0
2016-09-12T00:51:58.876Z,0
2016-09-12T00:52:59.934Z,0
2016-09-12T00:53:59.534Z,0
2016-09-12T00:54:58.543Z,0
2016-09-12T00:55:59.137Z,0
2016-09-12T00:56:59.263Z,0
2016-09-12T00:57:59.222Z,0
2016-09-12T00:58:58.839Z,0
2016-09-12T01:00:00.375Z,0
2016-09-12T01:02:00.962Z,0
2016-09-12T01:03:01.605Z,0
2016-09-12T01:04:00.422Z,0
2016-09-12T01:04:58.835Z,0
2016-09-12T01:05:58.838Z,0
2016-09-12T01:06:58.543Z,0
2016-09-12T01:07:58.506Z,0
2016-09-12T01:08:58.580Z,0
2016-09-12T01:09:59.458Z,0
2016-09-12T01:11:59.730Z,0
2016-09-12T01:12:58.872Z,0
2016-09-12T01:13:58.521Z,0
2016-09-12T01:14:58.511Z,0
2016-09-12T01:16:59.047Z,0
2016-09-12T01:17:58.714Z,0
2016-09-12T01:18:58.490Z,0
2016-09-12T01:19:59.097Z,0
2016-09-12T01:20:58.493Z,0
2016-09-12T01:21:58.549Z,0
2016-09-12T01:22:58.494Z,0
2016-09-12T01:23:58.496Z,0
2016-09-12T01:24:58.502Z,0
2016-09-12T01:25:58.788Z,0
2016-09-12T01:26:58.471Z,0
2016-09-12T01:27:58.808Z,0
2016-09-12T01:28:58.479Z,0
2016-09-12T01:29:58.499Z,0
2016-09-12T01:30:58.470Z,0
2016-09-12T01:31:58.538Z,0
2016-09-12T01:32:58.465Z,0
2016-09-12T01:33:58.476Z,0
2016-09-12T01:34:58.464Z,0
2016-09-12T01:35:58.758Z,0
2016-09-12T01:36:58.473Z,0
2016-09-12T01:37:58.540Z,0
2016-09-12T01:38:58.462Z,0
2016-09-12T01:39:58.454Z,0
2016-09-12T01:40:58.453Z,0
2016-09-12T01:41:58.440Z,0
2016-09-12T01:42:58.440Z,0
2016-09-12T01:43:58.458Z,0
2016-09-12T01:44:58.433Z,0
2016-09-12T01:45:58.457Z,0
2016-09-12T01:46:58.452Z,0
2016-09-12T01:47:58.738Z,0
2016-09-12T01:48:58.733Z,0
2016-09-12T01:49:58.424Z,0
2016-09-12T01:50:58.715Z,0
2016-09-12T01:51:58.732Z,0
2016-09-12T01:52:58.732Z,0
2016-09-12T01:53:58.453Z,0
2016-09-12T01:54:59.081Z,0
2016-09-12T01:55:59.069Z,0
2016-09-12T01:56:58.728Z,0
2016-09-12T01:57:58.410Z,0
2016-09-12T01:58:58.434Z,0
2016-09-12T01:59:58.701Z,0
2016-09-12T02:00:58.415Z,0
2016-09-12T02:01:58.391Z,0
2016-09-12T02:02:58.580Z,0
2016-09-12T02:03:58.400Z,0
2016-09-12T02:04:58.406Z,0
2016-09-12T02:05:58.422Z,0
2016-09-12T02:06:58.405Z,0
2016-09-12T02:07:58.421Z,0
2016-09-12T02:10:02.484Z,0
2016-09-12T02:10:59.399Z,0
2016-09-12T02:11:59.275Z,0
2016-09-12T02:12:58.391Z,0
2016-09-12T02:13:59.540Z,0
2016-09-12T02:14:58.371Z,0
2016-09-12T02:15:58.376Z,0
2016-09-12T02:16:58.358Z,0
2016-09-12T02:17:59.218Z,0
2016-09-12T02:19:02.505Z,0
2016-09-12T02:20:00.252Z,0
2016-09-12T02:21:00.617Z,0
2016-09-12T02:22:00.002Z,0
2016-09-12T02:22:58.758Z,0
2016-09-12T02:23:59.259Z,0
2016-09-12T02:24:58.391Z,0
2016-09-12T02:25:58.509Z,0
2016-09-12T02:26:58.590Z,0
2016-09-12T02:28:59.238Z,0
2016-09-12T02:29:58.725Z,0
2016-09-12T02:30:58.647Z,0
2016-09-12T02:31:59.126Z,0
2016-09-12T02:32:58.324Z,0
2016-09-12T02:33:58.336Z,0
2016-09-12T02:34:58.649Z,0
2016-09-12T02:35:58.642Z,0
2016-09-12T02:36:58.659Z,0
2016-09-12T02:37:58.963Z,0
2016-09-12T02:38:58.385Z,0
2016-09-12T02:39:58.634Z,0
2016-09-12T02:40:58.833Z,0
2016-09-12T02:41:58.302Z,0
2016-09-12T02:42:58.317Z,0
2016-09-12T02:43:58.360Z,0
2016-09-12T02:44:58.618Z,0
2016-09-12T02:45:58.293Z,0
2016-09-12T02:46:58.298Z,0
2016-09-12T02:47:58.316Z,0
2016-09-12T02:48:58.280Z,0
2016-09-12T02:49:58.282Z,0
2016-09-12T02:50:58.270Z,0
2016-09-12T02:51:58.578Z,0
2016-09-12T02:52:58.278Z,0
2016-09-12T02:53:58.271Z,0
2016-09-12T02:54:58.284Z,0
2016-09-12T02:55:58.272Z,0
2016-09-12T02:56:58.291Z,0
2016-09-12T02:57:58.259Z,0
2016-09-12T02:58:58.563Z,0
2016-09-12T02:59:58.254Z,0
2016-09-12T03:00:58.551Z,0
2016-09-12T03:01:58.253Z,0
2016-09-12T03:02:58.245Z,0
2016-09-12T03:03:58.554Z,0
2016-09-12T03:04:58.247Z,0
2016-09-12T03:05:58.563Z,0
2016-09-12T03:06:58.564Z,0
2016-09-12T03:07:58.257Z,0
2016-09-12T03:08:58.244Z,0
2016-09-12T03:09:58.237Z,0
2016-09-12T03:10:58.256Z,0
2016-09-12T03:11:58.227Z,0
2016-09-12T03:12:58.219Z,0
2016-09-12T03:13:58.230Z,0
2016-09-12T03:14:58.224Z,0
2016-09-12T03:15:58.565Z,0
2016-09-12T03:16:58.204Z,0
2016-09-12T03:17:58.215Z,0
2016-09-12T03:18:58.239Z,0
2016-09-12T03:19:58.227Z,0
2016-09-12T03:20:58.201Z,0
2016-09-12T03:21:58.284Z,0
2016-09-12T03:22:58.511Z,0
2016-09-12T03:23:58.489Z,0
2016-09-12T03:24:58.188Z,0
2016-09-12T03:25:58.215Z,0
2016-09-12T03:26:58.180Z,0
2016-09-12T03:29:00.832Z,0
2016-09-12T03:29:58.947Z,0
2016-09-12T03:30:58.479Z,0
2016-09-12T03:31:59.558Z,0
2016-09-12T03:32:58.165Z,0
2016-09-12T03:33:58.194Z,0
2016-09-12T03:34:58.205Z,0
2016-09-12T03:35:58.608Z,0
2016-09-12T03:37:00.652Z,0
2016-09-12T03:37:58.933Z,0
2016-09-12T03:38:59.757Z,0
2016-09-12T03:39:59.520Z,0
2016-09-12T03:40:58.515Z,0
2016-09-12T03:41:58.199Z,0
2016-09-12T03:42:58.481Z,0
2016-09-12T03:43:58.451Z,0
2016-09-12T03:44:58.403Z,0
2016-09-12T03:45:58.149Z,0
2016-09-12T03:47:13.357Z,0
2016-09-12T03:47:58.134Z,0
2016-09-12T03:48:58.224Z,0
2016-09-12T03:49:58.730Z,0
2016-09-12T03:50:58.146Z,0
2016-09-12T03:51:58.131Z,0
2016-09-12T03:52:58.130Z,0
2016-09-12T03:53:58.141Z,0
2016-09-12T03:54:58.105Z,0
2016-09-12T03:55:58.098Z,4
2016-09-12T03:56:58.177Z,4
2016-09-12T03:57:58.101Z,0
2016-09-12T03:58:58.095Z,4
2016-09-12T03:59:58.122Z,4
2016-09-12T04:00:58.142Z,0
2016-09-12T04:01:58.083Z,4
2016-09-12T04:02:58.438Z,4
2016-09-12T04:03:58.085Z,4
2016-09-12T04:04:58.115Z,8
2016-09-12T04:05:58.089Z,4
2016-09-12T04:06:58.326Z,8
2016-09-12T04:07:58.087Z,8
2016-09-12T04:08:58.114Z,12
2016-09-12T04:09:58.113Z,16
2016-09-12T04:10:58.236Z,20
2016-09-12T04:11:58.062Z,24
2016-09-12T04:12:58.451Z,24
2016-09-12T04:13:58.129Z,28
2016-09-12T04:14:58.077Z,36
2016-09-12T04:15:58.056Z,40
2016-09-12T04:16:58.549Z,48
2016-09-12T04:17:58.859Z,56
2016-09-12T04:18:58.076Z,68
2016-09-12T04:19:58.080Z,76
2016-09-12T04:20:58.096Z,88
2016-09-12T04:21:58.416Z,104
2016-09-12T04:22:58.251Z,120
2016-09-12T04:23:58.033Z,136
2016-09-12T04:24:58.048Z,152
2016-09-12T04:25:58.327Z,176
2016-09-12T04:26:58.012Z,200
2016-09-12T04:27:58.031Z,224
2016-09-12T04:28:58.322Z,248
2016-09-12T04:29:58.025Z,276
2016-09-12T04:30:58.006Z,308
2016-09-12T04:31:58.333Z,344
2016-09-12T04:32:58.310Z,376
2016-09-12T04:33:58.092Z,412
2016-09-12T04:34:58.053Z,448
2016-09-12T04:35:58.013Z,492
2016-09-12T04:36:58.284Z,536
2016-09-12T04:37:57.996Z,580
2016-09-12T04:38:58.044Z,628
2016-09-12T04:39:58.286Z,684
2016-09-12T04:40:57.973Z,736
2016-09-12T04:41:58.264Z,792
2016-09-12T04:42:57.979Z,852
2016-09-12T04:43:58.576Z,916
2016-09-12T04:44:57.977Z,984
2016-09-12T04:46:01.180Z,1060
2016-09-12T04:47:00.001Z,1136
2016-09-12T04:47:58.508Z,1216
2016-09-12T04:48:58.271Z,1300
2016-09-12T04:49:58.071Z,1388
2016-09-12T04:50:58.037Z,1476
2016-09-12T04:51:58.448Z,1576
2016-09-12T04:52:58.138Z,1680
2016-09-12T04:53:59.629Z,1784
2016-09-12T04:55:00.064Z,1900
2016-09-12T04:55:59.475Z,2008
2016-09-12T04:56:59.221Z,2132
2016-09-12T04:57:59.339Z,2252
2016-09-12T04:58:58.987Z,2372
2016-09-12T04:59:58.239Z,2500
2016-09-12T05:00:57.913Z,2632
2016-09-12T05:01:58.125Z,2764
2016-09-12T05:02:59.965Z,2904
2016-09-12T05:03:58.707Z,3040
2016-09-12T05:05:13.333Z,3220
2016-09-12T05:05:58.507Z,3328
2016-09-12T05:06:58.513Z,3488
2016-09-12T05:07:57.894Z,3640
2016-09-12T05:08:57.896Z,3796
2016-09-12T05:09:57.901Z,3952
2016-09-12T05:10:57.915Z,4112
2016-09-12T05:11:58.531Z,4264
2016-09-12T05:12:58.494Z,4416
2016-09-12T05:13:57.934Z,4556
2016-09-12T05:14:57.884Z,4760
2016-09-12T05:15:57.910Z,5000
2016-09-12T05:16:58.491Z,5248
2016-09-12T05:17:57.890Z,5472
2016-09-12T05:18:57.920Z,5652
2016-09-12T05:19:57.864Z,5844
2016-09-12T05:20:58.061Z,5992
2016-09-12T05:21:57.864Z,6136
2016-09-12T05:22:58.184Z,6228
2016-09-12T05:23:57.866Z,6432
2016-09-12T05:24:58.077Z,6652
2016-09-12T05:25:58.017Z,6760
2016-09-12T05:26:58.253Z,6892
2016-09-12T05:27:58.179Z,7080
2016-09-12T05:28:58.248Z,7188
2016-09-12T05:29:57.903Z,7388
2016-09-12T05:30:58.535Z,7672
2016-09-12T05:31:58.156Z,7704
2016-09-12T05:32:57.864Z,7768
2016-09-12T05:33:57.850Z,8032
2016-09-12T05:34:57.855Z,8164
2016-09-12T05:35:57.884Z,8172
2016-09-12T05:36:58.167Z,8304
2016-09-12T05:37:57.869Z,8508
2016-09-12T05:38:58.327Z,8648
2016-09-12T05:39:57.872Z,8840
2016-09-12T05:40:57.871Z,8952
2016-09-12T05:41:57.865Z,8732
2016-09-12T05:42:58.198Z,8592
2016-09-12T05:43:57.877Z,8804
2016-09-12T05:44:57.953Z,9132
2016-09-12T05:45:59.568Z,9516
2016-09-12T05:46:57.966Z,9932
2016-09-12T05:47:57.889Z,10236
2016-09-12T05:48:57.865Z,10368
2016-09-12T05:49:58.179Z,10452
2016-09-12T05:50:57.899Z,10596
2016-09-12T05:51:57.900Z,10716
2016-09-12T05:52:57.889Z,10800
2016-09-12T05:53:58.233Z,10988
2016-09-12T05:54:58.221Z,11076
2016-09-12T05:55:58.192Z,11184
2016-09-12T05:56:57.902Z,11220
2016-09-12T05:57:57.882Z,11060
2016-09-12T05:58:57.980Z,11068
2016-09-12T05:59:57.913Z,11440
2016-09-12T06:00:58.346Z,11624
2016-09-12T06:01:58.035Z,11636
2016-09-12T06:02:58.218Z,11792
2016-09-12T06:04:00.722Z,11896
2016-09-12T06:04:59.398Z,11860
2016-09-12T06:06:00.606Z,12056
2016-09-12T06:06:58.538Z,12280
2016-09-12T06:07:57.921Z,12472
2016-09-12T06:08:59.005Z,12684
2016-09-12T06:09:58.299Z,12752
2016-09-12T06:10:57.935Z,12596
2016-09-12T06:11:59.023Z,12724
2016-09-12T06:12:59.855Z,13068
2016-09-12T06:14:03.249Z,13236
2016-09-12T06:15:00.346Z,13520
2016-09-12T06:15:58.608Z,13668
2016-09-12T06:16:57.977Z,13972
2016-09-12T06:17:59.405Z,13960
2016-09-12T06:18:58.406Z,13788
2016-09-12T06:20:05.594Z,14084
2016-09-12T06:21:03.352Z,14560
2016-09-12T06:23:15.955Z,14752
2016-09-12T06:24:32.694Z,15104
2016-09-12T06:24:41.984Z,15136
2016-09-12T06:25:42.644Z,14368
2016-09-12T06:26:41.490Z,14484
2016-09-12T06:27:41.741Z,15392
2016-09-12T06:28:41.495Z,15648
2016-09-12T06:29:41.563Z,15616
2016-09-12T06:30:41.511Z,15424
2016-09-12T06:31:41.820Z,15584
2016-09-12T06:32:41.526Z,15616
2016-09-12T06:33:41.533Z,14740
2016-09-12T06:34:41.538Z,15360
2016-09-12T06:35:41.550Z,15744
2016-09-12T06:36:41.550Z,14980
2016-09-12T06:37:41.579Z,14820
2016-09-12T06:38:41.567Z,14692
2016-09-12T06:39:41.573Z,14596
2016-09-12T06:40:53.146Z,14584
2016-09-12T06:42:12.755Z,14524
